• Join FlightAware (Why Join?)
  • Login
  • US Flag 
05:54PM EDT


 

Airport Tracker/Info


-or-


 

Live Flight TrackerFlight Track Log ✈ TMC875 ✈ 26-Apr-2013 ✈ KHTO - KBOS

Flight Track Log - Related Links

Times and Time Zones

All times are in EDT time to prevent confusion due to time zone crossing. See the TMC875 flight status page for this flight to view local times or setup timezone preferences in your user account.

Time Position Orientation Groundspeed Altitude Reporting Facility
EDT Latitude Longitude Course Direction KTS MPH feet Rate Location/Type
04:51PM 40.9081 -72.2450 248° West 248 285 5,600  Level Boston Center
04:52PM 40.9247 -72.2972 293° West 261 300 8,000 2,100 Climbing Boston Center
04:53PM 40.9936 -72.2750 14° North 300 345 8,900 420 Climbing Boston Center
04:54PM 41.0769 -72.2364 19° North 278 320 9,000  Climbing Boston Center
04:55PM 41.1475 -72.2003 21° North 273 314 9,000  Level Boston Center
04:56PM 41.2183 -72.1669 19° North 274 315 9,000 -60 Level Boston Center
04:57PM 41.2975 -72.1306 19° North 278 320 8,900  Descending Boston Center
04:58PM 41.3744 -72.0917 21° North 272 313 9,000  Climbing Boston Center
04:59PM 41.4453 -72.0553 21° North 269 310 9,000  Level Boston Center
05:00PM 41.5158 -72.0214 20° North 267 307 9,000  Level Boston Center
05:01PM 41.5761 -71.9767 29° Northeast 271 312 9,000  Level Boston Center
05:02PM 41.6300 -71.9069 44° Northeast 273 314 9,000  Level Boston Center
05:03PM 41.6903 -71.8342 42° Northeast 274 315 9,000  Level Boston Center
05:04PM 41.7461 -71.7667 42° Northeast 275 316 9,000  Level Boston Center
05:05PM 41.8019 -71.6939 44° Northeast 275 316 9,000 -660 Level Boston Center
05:08PM 41.9333 -71.5333 42° Northeast 278 320 7,000 -660 Descending KA90
05:09PM 42.0000 -71.4833 29° Northeast 275 316 7,000 -240 Level KA90
05:10PM 42.0500 -71.4167 45° Northeast 273 314 6,600 -960 Descending KA90
05:11PM 42.1167 -71.3500 37° Northeast 274 315 5,200 -1,320 Descending KA90
05:12PM 42.1667 -71.3000 37° Northeast 267 307 4,000 -1,080 Descending KA90
05:13PM 42.2333 -71.2167 43° Northeast 257 296 3,000 -540 Descending KA90
05:14PM 42.2500 -71.1667 66° East 189 217 3,000 -360 Level KA90
05:15PM 42.2667 -71.1000 71° East 166 191 2,400 -720 Descending KA90
05:16PM 42.3000 -71.0500 48° Northeast 156 180 1,600 -900 Descending KA90
05:17PM 42.3333 -71.0333 20° North 128 147 600 -1,020 Descending KA90
05:19PM 42.3500 -71.0000 36° Northeast  Level FlightAware Approximate
05:26PM 42.3630 -71.0064 36° Northeast  Level Estimated